createdAt,value
2023-04-09T00:01:14.902Z,20.73
2023-04-09T00:03:42.203Z,21.02
2023-04-09T00:06:09.564Z,21.00
2023-04-09T00:08:36.882Z,25.85
2023-04-09T00:11:04.575Z,19.52
2023-04-09T00:13:39.306Z,20.60
2023-04-09T00:16:08.712Z,26.52
2023-04-09T00:18:36.402Z,19.60
2023-04-09T00:21:03.572Z,19.48
2023-04-09T00:23:30.770Z,22.25
2023-04-09T00:25:57.933Z,21.67
2023-04-09T00:28:25.684Z,20.20
2023-04-09T00:30:53.320Z,21.33
2023-04-09T00:33:20.931Z,23.48
2023-04-09T00:35:48.220Z,26.08
2023-04-09T00:38:15.844Z,21.77
2023-04-09T00:40:43.289Z,23.02
2023-04-09T00:43:10.702Z,22.25
2023-04-09T00:45:38.289Z,22.90
2023-04-09T00:48:06.098Z,21.73
2023-04-09T00:50:33.653Z,21.08
2023-04-09T00:53:01.343Z,18.38
2023-04-09T00:55:29.388Z,18.92
2023-04-09T00:57:56.468Z,20.50
2023-04-09T01:00:23.943Z,20.75
2023-04-09T01:02:54.328Z,24.65
2023-04-09T01:05:21.996Z,20.45
2023-04-09T01:08:16.913Z,22.77
2023-04-09T01:10:58.796Z,24.75
2023-04-09T01:13:35.815Z,27.60
2023-04-09T01:16:04.085Z,19.83
2023-04-09T01:18:56.790Z,20.50
2023-04-09T01:21:31.366Z,22.98
2023-04-09T01:24:11.183Z,18.52
2023-04-09T01:27:08.732Z,18.65
2023-04-09T01:30:04.984Z,21.58
2023-04-09T01:32:35.560Z,23.77
2023-04-09T01:35:03.746Z,21.92
2023-04-09T01:37:32.219Z,23.75
2023-04-09T01:39:59.682Z,22.50
2023-04-09T01:42:27.768Z,25.30
2023-04-09T01:44:55.593Z,31.75
2023-04-09T01:47:23.418Z,35.17
2023-04-09T01:49:52.035Z,39.25
2023-04-09T01:52:19.847Z,42.15
2023-04-09T01:54:47.090Z,31.20
2023-04-09T01:57:14.590Z,33.20
2023-04-09T01:59:41.804Z,32.70
2023-04-09T02:02:15.921Z,28.45
2023-04-09T02:04:48.406Z,28.50
2023-04-09T02:07:43.035Z,33.17
2023-04-09T02:10:12.073Z,31.88
2023-04-09T02:12:48.742Z,25.63
2023-04-09T02:15:16.818Z,32.22
2023-04-09T02:17:45.207Z,27.40
2023-04-09T02:20:16.490Z,34.58
2023-04-09T02:22:43.774Z,31.10
2023-04-09T02:25:11.419Z,23.23
2023-04-09T02:27:39.759Z,29.60
2023-04-09T02:30:07.541Z,31.02
2023-04-09T02:32:34.910Z,29.80
2023-04-09T02:35:02.373Z,28.15
2023-04-09T02:37:30.586Z,28.10
2023-04-09T02:39:57.847Z,31.33
2023-04-09T02:42:24.958Z,25.88
2023-04-09T02:44:52.047Z,29.67
2023-04-09T02:47:19.346Z,28.70
2023-04-09T02:49:46.772Z,29.58
2023-04-09T02:52:13.939Z,28.13
2023-04-09T02:54:41.112Z,28.02
2023-04-09T02:57:08.291Z,39.15
2023-04-09T02:59:39.235Z,35.67
2023-04-09T03:02:06.832Z,35.10
2023-04-09T03:04:34.291Z,29.05
2023-04-09T03:07:01.536Z,32.08
2023-04-09T03:09:29.518Z,33.40
2023-04-09T03:11:57.550Z,31.20
2023-04-09T03:14:25.283Z,30.23
2023-04-09T03:16:52.914Z,34.67
2023-04-09T03:19:20.289Z,26.10
2023-04-09T03:21:49.398Z,30.20
2023-04-09T03:24:18.366Z,32.67
2023-04-09T03:26:45.575Z,31.45
2023-04-09T03:29:15.273Z,28.17
2023-04-09T03:31:42.582Z,29.88
2023-04-09T03:34:10.455Z,29.63
2023-04-09T03:36:37.890Z,32.85
2023-04-09T03:39:11.056Z,35.58
2023-04-09T03:41:42.224Z,35.85
2023-04-09T03:44:14.062Z,30.38
2023-04-09T03:46:55.369Z,27.58
2023-04-09T03:49:23.118Z,29.35
2023-04-09T03:51:50.701Z,30.77
2023-04-09T03:54:18.984Z,30.90
2023-04-09T03:56:46.848Z,27.25
2023-04-09T03:59:16.282Z,27.52
2023-04-09T04:01:48.186Z,27.92
2023-04-09T04:04:16.642Z,33.45
2023-04-09T04:06:51.838Z,28.63
2023-04-09T04:09:19.088Z,29.45
2023-04-09T04:11:58.965Z,26.25
2023-04-09T04:14:40.394Z,28.88
2023-04-09T04:17:18.453Z,24.73
2023-04-09T04:19:46.285Z,23.15
2023-04-09T04:22:14.129Z,28.65
2023-04-09T04:24:45.017Z,24.27
2023-04-09T04:27:17.309Z,27.92
2023-04-09T04:29:44.616Z,30.55
2023-04-09T04:32:32.112Z,29.30
2023-04-09T04:35:03.584Z,30.88
2023-04-09T04:37:31.082Z,30.25
2023-04-09T04:40:04.387Z,29.80
2023-04-09T04:42:36.783Z,31.05
2023-04-09T04:45:10.719Z,27.75
2023-04-09T04:47:43.794Z,29.00
2023-04-09T04:50:11.278Z,33.80
2023-04-09T04:52:58.767Z,28.27
2023-04-09T04:55:30.231Z,29.20
2023-04-09T04:57:59.725Z,29.13
2023-04-09T05:00:31.765Z,30.70
2023-04-09T05:03:02.238Z,26.23
2023-04-09T05:05:55.728Z,30.45
2023-04-09T05:08:24.875Z,25.98
2023-04-09T05:10:56.342Z,24.67
2023-04-09T05:13:30.233Z,24.80
2023-04-09T05:15:57.882Z,23.65
2023-04-09T05:18:25.109Z,26.38
2023-04-09T05:20:52.265Z,33.42
2023-04-09T05:23:19.565Z,23.00
2023-04-09T05:25:50.376Z,29.25
2023-04-09T05:28:27.337Z,23.45
2023-04-09T05:31:05.331Z,26.10
2023-04-09T05:33:38.314Z,28.00
2023-04-09T05:36:19.635Z,25.75
2023-04-09T05:38:47.525Z,27.73
2023-04-09T05:41:15.145Z,27.10
2023-04-09T05:43:53.924Z,27.02
2023-04-09T05:46:21.725Z,30.90
2023-04-09T05:48:50.629Z,23.60
2023-04-09T05:51:18.011Z,23.90
2023-04-09T05:53:46.154Z,32.85
2023-04-09T05:56:15.761Z,27.58
2023-04-09T05:58:51.540Z,25.75
2023-04-09T06:01:18.479Z,24.20
2023-04-09T06:03:46.596Z,30.13
2023-04-09T06:06:14.124Z,26.02
2023-04-09T06:08:41.682Z,23.70
2023-04-09T06:11:10.500Z,29.52
2023-04-09T06:13:38.313Z,24.35
2023-04-09T06:16:06.870Z,25.52
2023-04-09T06:18:34.513Z,38.95
2023-04-09T06:21:09.643Z,33.17
2023-04-09T06:23:37.482Z,25.20
2023-04-09T06:26:04.704Z,26.15
2023-04-09T06:28:32.464Z,31.08
2023-04-09T06:30:59.951Z,33.63
2023-04-09T06:33:27.092Z,33.40
2023-04-09T06:35:54.361Z,25.15
2023-04-09T06:38:21.532Z,26.98
2023-04-09T06:40:48.661Z,30.00
2023-04-09T06:43:15.893Z,27.75
2023-04-09T06:45:49.090Z,29.17
2023-04-09T06:48:16.862Z,30.75
2023-04-09T06:50:45.156Z,29.20
2023-04-09T06:53:13.618Z,30.40
2023-04-09T06:55:41.276Z,23.50
2023-04-09T06:58:08.564Z,25.98
2023-04-09T07:00:35.628Z,30.50
2023-04-09T07:03:03.278Z,27.88
2023-04-09T07:05:30.868Z,26.27
2023-04-09T07:07:57.924Z,35.28
2023-04-09T07:10:25.390Z,33.47
2023-04-09T07:12:52.563Z,31.55
2023-04-09T07:15:19.775Z,26.17
2023-04-09T07:17:47.030Z,34.00
2023-04-09T07:20:14.421Z,28.30
2023-04-09T07:22:41.818Z,25.88
2023-04-09T07:25:09.059Z,28.23
2023-04-09T07:27:36.306Z,22.05
2023-04-09T07:30:03.769Z,27.55
2023-04-09T07:32:31.125Z,26.58
2023-04-09T07:34:59.657Z,23.15
2023-04-09T07:37:27.302Z,25.63
2023-04-09T07:39:54.491Z,21.27
2023-04-09T07:42:22.018Z,24.17
2023-04-09T07:44:49.487Z,18.20
2023-04-09T07:47:16.791Z,25.30
2023-04-09T07:49:43.811Z,16.42
2023-04-09T07:52:11.122Z,27.17
2023-04-09T07:54:38.227Z,22.95
2023-04-09T07:57:05.519Z,19.10
2023-04-09T07:59:35.880Z,22.67
2023-04-09T08:02:03.300Z,20.27
2023-04-09T08:04:30.916Z,17.25
2023-04-09T08:06:58.265Z,17.17
2023-04-09T08:09:26.144Z,23.95
2023-04-09T08:11:53.820Z,21.35
2023-04-09T08:14:21.419Z,25.45
2023-04-09T08:16:50.639Z,24.30
2023-04-09T08:19:19.221Z,28.92
2023-04-09T08:21:49.847Z,23.90
2023-04-09T08:24:17.046Z,24.52
2023-04-09T08:26:44.560Z,18.17
2023-04-09T08:29:13.713Z,22.88
2023-04-09T08:31:40.999Z,19.27
2023-04-09T08:34:08.350Z,20.27
2023-04-09T08:36:36.042Z,19.67
2023-04-09T08:39:04.254Z,23.85
2023-04-09T08:41:31.706Z,19.75
2023-04-09T08:43:59.934Z,21.48
2023-04-09T08:46:28.166Z,17.00
2023-04-09T08:48:58.699Z,20.45
2023-04-09T08:51:29.197Z,22.73
2023-04-09T08:53:59.671Z,16.98
2023-04-09T08:56:28.842Z,20.10
2023-04-09T08:58:57.099Z,14.55
2023-04-09T09:01:33.569Z,18.25
2023-04-09T09:04:07.244Z,16.75
2023-04-09T09:06:36.771Z,21.48
2023-04-09T09:09:10.105Z,24.42
2023-04-09T09:11:46.211Z,17.00
2023-04-09T09:16:44.384Z,15.00
2023-04-09T09:19:27.068Z,16.85
2023-04-09T09:22:00.785Z,18.23
2023-04-09T09:24:28.309Z,18.13
2023-04-09T09:26:57.284Z,20.08
2023-04-09T09:29:24.831Z,18.33
2023-04-09T09:31:53.787Z,20.05
2023-04-09T09:34:26.131Z,18.33
2023-04-09T09:36:53.434Z,21.55
2023-04-09T09:39:24.003Z,18.73
2023-04-09T09:42:07.827Z,17.40
2023-04-09T09:44:35.401Z,19.50
2023-04-09T09:47:04.996Z,20.17
2023-04-09T09:49:32.424Z,20.85
2023-04-09T09:52:03.102Z,15.38
2023-04-09T09:54:39.057Z,17.92
2023-04-09T09:57:09.841Z,20.63
2023-04-09T09:59:51.066Z,18.02
2023-04-09T10:02:24.422Z,18.90
2023-04-09T10:04:53.061Z,19.48
2023-04-09T10:07:22.088Z,17.80
2023-04-09T10:09:54.646Z,27.10
2023-04-09T10:14:53.152Z,21.20
2023-04-09T10:17:21.953Z,17.10
2023-04-09T10:20:08.336Z,21.95
2023-04-09T10:22:37.671Z,21.67
2023-04-09T10:25:06.700Z,23.30
2023-04-09T10:27:33.923Z,22.00
2023-04-09T10:30:01.995Z,20.58
2023-04-09T10:32:36.410Z,15.50
2023-04-09T10:35:04.564Z,19.38
2023-04-09T10:37:33.157Z,18.35
2023-04-09T10:40:00.948Z,17.05
2023-04-09T10:42:31.381Z,15.15
2023-04-09T10:45:11.663Z,16.20
2023-04-09T10:47:41.542Z,14.10
2023-04-09T10:50:17.300Z,17.40
2023-04-09T10:52:45.391Z,18.08
2023-04-09T10:55:41.262Z,16.77
2023-04-09T10:58:12.803Z,17.65
2023-04-09T11:00:45.971Z,14.73
2023-04-09T11:03:25.726Z,19.27
2023-04-09T11:05:56.797Z,17.95
2023-04-09T11:08:24.199Z,17.92
2023-04-09T11:10:53.563Z,16.73
2023-04-09T11:13:22.030Z,16.77
2023-04-09T11:15:49.298Z,16.80
2023-04-09T11:18:26.758Z,17.05
2023-04-09T11:20:58.338Z,21.08
2023-04-09T11:23:26.540Z,18.15
2023-04-09T11:25:54.917Z,15.10
2023-04-09T11:28:24.049Z,14.02
2023-04-09T11:30:52.453Z,18.45
2023-04-09T11:33:20.779Z,15.05
2023-04-09T11:35:48.954Z,16.33
2023-04-09T11:38:16.662Z,18.70
2023-04-09T11:40:51.627Z,16.42
2023-04-09T11:43:21.163Z,18.08
2023-04-09T11:45:49.485Z,16.70
2023-04-09T11:48:21.996Z,17.63
2023-04-09T11:50:51.868Z,19.30
2023-04-09T11:53:23.866Z,15.60
2023-04-09T11:55:52.506Z,15.57
2023-04-09T11:58:26.456Z,15.73
2023-04-09T12:00:59.176Z,14.32
2023-04-09T12:05:56.742Z,18.90
2023-04-09T12:08:25.119Z,14.93
2023-04-09T12:10:53.945Z,21.80
2023-04-09T12:13:22.054Z,16.65
2023-04-09T12:15:50.227Z,21.40
2023-04-09T12:18:17.806Z,14.45
2023-04-09T12:20:47.910Z,17.17
2023-04-09T12:23:16.929Z,15.70
2023-04-09T12:25:45.478Z,20.35
2023-04-09T12:28:15.956Z,13.40
2023-04-09T12:30:43.984Z,15.40
2023-04-09T12:33:14.807Z,16.90
2023-04-09T12:35:42.451Z,18.13
2023-04-09T12:38:09.501Z,14.70
2023-04-09T12:40:37.212Z,14.05
2023-04-09T12:43:04.947Z,11.80
2023-04-09T12:45:32.244Z,21.33
2023-04-09T12:48:19.509Z,13.80
2023-04-09T12:51:06.748Z,18.98
2023-04-09T12:53:54.421Z,14.35
2023-04-09T12:56:21.842Z,12.13
2023-04-09T12:59:09.122Z,13.90
2023-04-09T13:01:36.395Z,15.70
2023-04-09T13:04:04.046Z,15.52
2023-04-09T13:06:31.547Z,18.75
2023-04-09T13:09:18.912Z,19.77
2023-04-09T13:12:06.175Z,18.08
2023-04-09T13:14:33.456Z,17.25
2023-04-09T13:17:20.879Z,16.85
2023-04-09T13:19:48.222Z,17.40
2023-04-09T13:22:15.730Z,13.70
2023-04-09T13:24:43.542Z,17.80
2023-04-09T13:27:11.421Z,20.55
2023-04-09T13:29:40.711Z,20.38
2023-04-09T13:32:08.124Z,20.48
2023-04-09T13:34:39.680Z,18.58
2023-04-09T13:37:16.668Z,21.30
2023-04-09T13:39:44.961Z,22.88
2023-04-09T13:42:31.643Z,20.95
2023-04-09T13:45:18.056Z,15.77
2023-04-09T13:48:04.016Z,21.63
2023-04-09T13:50:50.160Z,19.27
2023-04-09T13:53:36.339Z,20.83
2023-04-09T13:56:22.383Z,19.15
2023-04-09T13:59:08.393Z,17.65
2023-04-09T14:01:36.055Z,15.93
2023-04-09T14:04:03.702Z,18.05
2023-04-09T14:06:31.496Z,20.58
2023-04-09T14:08:58.661Z,17.00
2023-04-09T14:11:26.181Z,24.27
2023-04-09T14:13:53.474Z,17.38
2023-04-09T14:16:21.111Z,26.13
2023-04-09T14:18:48.478Z,20.33
2023-04-09T14:21:15.964Z,17.63
2023-04-09T14:23:43.160Z,22.05
2023-04-09T14:26:11.106Z,18.10
2023-04-09T14:28:38.313Z,19.92
2023-04-09T14:31:05.919Z,23.73
2023-04-09T14:33:33.672Z,17.23
2023-04-09T14:36:01.444Z,20.50
2023-04-09T14:38:28.799Z,23.67
2023-04-09T14:40:56.088Z,18.73
2023-04-09T14:43:23.192Z,16.05
2023-04-09T14:45:50.336Z,17.80
2023-04-09T14:48:17.861Z,15.63
2023-04-09T14:50:44.967Z,15.77
2023-04-09T14:53:12.770Z,14.85
2023-04-09T14:55:40.043Z,22.25
2023-04-09T14:58:08.285Z,23.27
2023-04-09T15:00:36.296Z,15.05
2023-04-09T15:03:04.293Z,21.13
2023-04-09T15:05:31.637Z,19.70
2023-04-09T15:07:58.875Z,20.45
2023-04-09T15:10:26.289Z,20.52
2023-04-09T15:12:53.458Z,24.95
2023-04-09T15:15:20.664Z,24.75
2023-04-09T15:17:48.244Z,28.25
2023-04-09T15:20:15.561Z,23.75
2023-04-09T15:22:42.834Z,23.05
2023-04-09T15:27:38.129Z,21.27
2023-04-09T15:30:06.450Z,31.83
2023-04-09T15:32:34.014Z,26.02
2023-04-09T15:35:01.489Z,25.33
2023-04-09T15:37:29.700Z,24.08
2023-04-09T15:39:56.873Z,31.23
2023-04-09T15:42:23.944Z,21.95
2023-04-09T15:44:51.522Z,33.53
2023-04-09T15:47:18.797Z,22.45
2023-04-09T15:49:46.161Z,24.35
2023-04-09T15:52:13.647Z,21.88
2023-04-09T15:54:40.928Z,35.45
2023-04-09T15:57:08.188Z,30.73
2023-04-09T15:59:35.340Z,23.88
2023-04-09T16:02:05.436Z,27.17
2023-04-09T16:04:33.216Z,20.45
2023-04-09T16:07:01.771Z,26.95
2023-04-09T16:09:29.058Z,25.35
2023-04-09T16:11:56.270Z,21.10
2023-04-09T16:14:23.460Z,27.33
2023-04-09T16:16:51.428Z,25.38
2023-04-09T16:19:18.784Z,42.72
2023-04-09T16:21:46.156Z,30.80
2023-04-09T16:24:14.747Z,30.98
2023-04-09T16:26:43.626Z,28.25
2023-04-09T16:29:11.245Z,26.00
2023-04-09T16:31:42.048Z,24.35
2023-04-09T16:34:09.297Z,28.92
2023-04-09T16:36:43.905Z,28.85
2023-04-09T16:39:13.507Z,29.90
2023-04-09T16:41:40.822Z,30.25
2023-04-09T16:44:08.089Z,29.80
2023-04-09T16:46:35.442Z,21.33
2023-04-09T16:49:03.088Z,28.23
2023-04-09T16:51:30.396Z,32.88
2023-04-09T16:53:57.577Z,27.38
2023-04-09T16:56:25.508Z,25.52
2023-04-09T16:58:53.208Z,35.55
2023-04-09T17:01:20.585Z,24.45
2023-04-09T17:03:51.327Z,29.17
2023-04-09T17:06:18.643Z,26.05
2023-04-09T17:08:46.351Z,35.22
2023-04-09T17:11:17.892Z,32.35
2023-04-09T17:13:45.128Z,44.38
2023-04-09T17:16:12.682Z,31.67
2023-04-09T17:18:39.985Z,31.10
2023-04-09T17:21:07.497Z,29.55
2023-04-09T17:23:34.586Z,28.65
2023-04-09T17:26:02.377Z,20.02
2023-04-09T17:28:29.705Z,22.73
2023-04-09T17:30:56.890Z,20.27
2023-04-09T17:33:24.232Z,21.25
2023-04-09T17:35:51.403Z,27.38
2023-04-09T17:38:21.641Z,28.85
2023-04-09T17:40:50.824Z,21.92
2023-04-09T17:43:18.538Z,29.10
2023-04-09T17:45:45.888Z,22.10
2023-04-09T17:48:13.321Z,18.20
2023-04-09T17:50:40.690Z,15.55
2023-04-09T17:53:08.534Z,30.77
2023-04-09T17:55:36.318Z,17.77
2023-04-09T17:58:03.875Z,22.70
2023-04-09T18:00:31.837Z,22.10
2023-04-09T18:02:59.815Z,21.08
2023-04-09T18:05:27.437Z,21.92
2023-04-09T18:07:56.924Z,18.33
2023-04-09T18:10:24.236Z,20.70
2023-04-09T18:12:52.015Z,22.65
2023-04-09T18:15:19.410Z,25.58
2023-04-09T18:17:46.763Z,20.23
2023-04-09T18:20:15.505Z,21.98
2023-04-09T18:22:43.836Z,20.05
2023-04-09T18:25:11.170Z,20.05
2023-04-09T18:27:39.354Z,21.45
2023-04-09T18:30:07.092Z,16.35
2023-04-09T18:32:37.649Z,16.42
2023-04-09T18:35:05.454Z,23.15
2023-04-09T18:37:34.301Z,20.60
2023-04-09T18:40:02.738Z,25.58
2023-04-09T18:42:30.426Z,22.85
2023-04-09T18:44:58.728Z,20.10
2023-04-09T18:47:26.405Z,23.17
2023-04-09T18:49:53.846Z,31.35
2023-04-09T18:52:21.150Z,30.27
2023-04-09T18:54:49.330Z,27.50
2023-04-09T18:57:17.017Z,30.08
2023-04-09T18:59:46.715Z,22.38
2023-04-09T19:02:14.103Z,21.17
2023-04-09T19:04:42.231Z,20.25
2023-04-09T19:07:09.910Z,21.10
2023-04-09T19:09:37.592Z,36.38
2023-04-09T19:12:06.164Z,26.50
2023-04-09T19:14:33.739Z,26.88
2023-04-09T19:17:02.516Z,25.85
2023-04-09T19:19:29.702Z,26.30
2023-04-09T19:21:59.808Z,23.38
2023-04-09T19:24:27.367Z,23.80
2023-04-09T19:26:55.375Z,21.15
2023-04-09T19:29:22.844Z,27.75
2023-04-09T19:31:50.617Z,24.33
2023-04-09T19:34:18.076Z,28.55
2023-04-09T19:36:45.505Z,23.48
2023-04-09T19:39:12.954Z,19.35
2023-04-09T19:41:43.857Z,29.60
2023-04-09T19:44:11.554Z,24.77
2023-04-09T19:46:38.983Z,26.58
2023-04-09T19:49:06.466Z,23.92
2023-04-09T19:51:33.901Z,27.33
2023-04-09T19:54:01.133Z,24.45
2023-04-09T19:56:28.405Z,26.25
2023-04-09T19:58:56.089Z,24.75
2023-04-09T20:01:25.611Z,27.65
2023-04-09T20:03:53.090Z,31.58
2023-04-09T20:06:20.596Z,26.30
2023-04-09T20:08:49.483Z,26.23
2023-04-09T20:11:18.162Z,22.42
2023-04-09T20:13:48.376Z,24.98
2023-04-09T20:16:16.116Z,16.60
2023-04-09T20:18:43.506Z,28.27
2023-04-09T20:21:14.615Z,27.02
2023-04-09T20:23:42.072Z,28.65
2023-04-09T20:26:11.230Z,22.38
2023-04-09T20:28:38.748Z,23.60
2023-04-09T20:31:06.522Z,28.42
2023-04-09T20:33:34.599Z,24.90
2023-04-09T20:36:01.988Z,25.67
2023-04-09T20:38:30.593Z,24.00
2023-04-09T20:40:57.735Z,21.77
2023-04-09T20:43:24.878Z,33.92
2023-04-09T20:45:53.393Z,24.95
2023-04-09T20:48:23.060Z,27.02
2023-04-09T20:50:50.828Z,25.00
2023-04-09T20:53:18.101Z,25.50
2023-04-09T20:55:46.614Z,24.90
2023-04-09T20:58:13.750Z,20.30
2023-04-09T21:00:41.126Z,27.60
2023-04-09T21:03:08.681Z,20.25
2023-04-09T21:05:36.285Z,24.83
2023-04-09T21:08:03.593Z,21.30
2023-04-09T21:10:30.768Z,19.20
2023-04-09T21:12:58.154Z,25.08
2023-04-09T21:15:25.369Z,30.00
2023-04-09T21:17:52.770Z,31.15
2023-04-09T21:20:20.132Z,27.33
2023-04-09T21:22:48.360Z,26.80
2023-04-09T21:25:15.823Z,24.52
2023-04-09T21:27:43.273Z,19.65
2023-04-09T21:30:10.610Z,28.95
2023-04-09T21:32:38.629Z,24.10
2023-04-09T21:35:06.150Z,22.52
2023-04-09T21:37:33.888Z,29.60
2023-04-09T21:40:01.115Z,27.10
2023-04-09T21:42:31.793Z,36.28
2023-04-09T21:44:59.071Z,28.23
2023-04-09T21:47:27.781Z,30.13
2023-04-09T21:49:55.994Z,24.15
2023-04-09T21:52:24.626Z,22.38
2023-04-09T21:54:52.017Z,20.35
2023-04-09T21:57:19.312Z,27.88
2023-04-09T21:59:47.176Z,24.38
2023-04-09T22:02:14.623Z,29.63
2023-04-09T22:04:42.981Z,20.33
2023-04-09T22:07:11.161Z,26.35
2023-04-09T22:09:38.752Z,26.08
2023-04-09T22:12:06.428Z,23.40
2023-04-09T22:14:33.688Z,20.33
2023-04-09T22:17:01.986Z,24.80
2023-04-09T22:19:31.695Z,20.65
2023-04-09T22:21:58.978Z,27.33
2023-04-09T22:24:30.481Z,27.33
2023-04-09T22:27:01.753Z,27.83
2023-04-09T22:29:29.606Z,23.35
2023-04-09T22:31:56.929Z,25.95
2023-04-09T22:34:24.716Z,23.25
2023-04-09T22:36:52.038Z,21.10
2023-04-09T22:39:19.442Z,20.75
2023-04-09T22:41:47.046Z,21.67
2023-04-09T22:44:14.349Z,26.00
2023-04-09T22:46:42.264Z,23.33
2023-04-09T22:49:09.635Z,30.75
2023-04-09T22:51:38.147Z,21.17
2023-04-09T22:54:06.850Z,22.65
2023-04-09T22:56:34.681Z,22.25
2023-04-09T22:59:01.959Z,20.15
2023-04-09T23:01:29.712Z,25.65
2023-04-09T23:03:57.045Z,25.38
2023-04-09T23:06:25.893Z,23.05
2023-04-09T23:08:53.064Z,23.13
2023-04-09T23:11:21.324Z,26.70
2023-04-09T23:13:48.514Z,21.13
2023-04-09T23:16:15.994Z,24.02
2023-04-09T23:18:43.964Z,22.55
2023-04-09T23:21:11.967Z,23.30
2023-04-09T23:23:39.323Z,21.92
2023-04-09T23:26:06.982Z,23.15
2023-04-09T23:28:35.676Z,21.77
2023-04-09T23:31:03.334Z,23.33
2023-04-09T23:33:32.652Z,22.33
2023-04-09T23:36:00.437Z,17.80
2023-04-09T23:38:27.705Z,21.13
2023-04-09T23:40:54.977Z,25.55
2023-04-09T23:43:22.030Z,22.38
2023-04-09T23:45:50.690Z,25.77
2023-04-09T23:48:17.961Z,24.85
2023-04-09T23:50:45.124Z,23.50
2023-04-09T23:53:12.731Z,29.00
2023-04-09T23:55:41.537Z,22.90
2023-04-09T23:58:09.994Z,29.35
